Time;durP1;ratioP1;P1;durP2;ratioP2;P2;SDS_P1;SDS_P2;PMS_P1;PMS_P2;Temp;Humidity;BMP_temperature;BMP_pressure;BME280_temperature;BME280_humidity;BME280_pressure;Samples;Min_cycle;Max_cycle;Signal;HPM_P1;HPM_P2
2021/06/18 00:01:27;;;;;;;6.78;6.05;;;25.10;62.20;;;;;;10413259;28;20033;-58
2021/06/18 00:06:28;;;;;;;6.35;5.75;;;25.10;62.20;;;;;;10414724;28;20040;-57
2021/06/18 00:11:28;;;;;;;6.60;5.35;;;25.10;62.90;;;;;;10429718;28;20124;-58
2021/06/18 00:16:29;;;;;;;6.22;5.72;;;25.10;62.30;;;;;;10414419;28;20111;-58
2021/06/18 00:21:30;;;;;;;6.70;6.05;;;25.10;62.30;;;;;;10413934;28;20029;-58
2021/06/18 00:26:31;;;;;;;7.13;6.43;;;25.10;62.30;;;;;;10414076;28;20025;-58
2021/06/18 00:31:31;;;;;;;6.38;5.78;;;25.00;62.30;;;;;;10413532;28;20612;-58
2021/06/18 00:36:32;;;;;;;6.40;5.90;;;25.00;62.40;;;;;;10400206;28;20033;-58
2021/06/18 00:41:33;;;;;;;7.25;6.60;;;25.10;62.30;;;;;;10418469;28;20556;-58
2021/06/18 00:46:34;;;;;;;6.65;6.05;;;25.00;62.30;;;;;;10414612;28;20053;-58
2021/06/18 00:51:35;;;;;;;6.35;5.75;;;25.00;62.30;;;;;;10412219;28;20061;-58
2021/06/18 00:56:36;;;;;;;7.13;6.45;;;25.00;62.30;;;;;;10413244;28;20132;-59
2021/06/18 01:01:37;;;;;;;6.90;6.30;;;25.10;62.30;;;;;;10412345;28;20065;-58
2021/06/18 01:06:41;;;;;;;7.65;6.95;;;25.00;62.30;;;;;;10414454;28;20057;-58
2021/06/18 01:12:01;;;;;;;7.50;6.85;;;25.00;62.40;;;;;;10419649;28;20034;-58
2021/06/18 01:17:24;;;;;;;7.15;6.47;;;25.00;62.30;;;;;;10420306;28;20385;-58
2021/06/18 01:22:27;;;;;;;6.85;6.15;;;25.00;62.30;;;;;;10420770;28;20041;-57
2021/06/18 01:27:31;;;;;;;6.90;6.20;;;25.00;62.40;;;;;;10403369;28;20496;-58
2021/06/18 01:32:59;;;;;;;7.68;6.97;;;25.00;62.40;;;;;;10420006;28;20389;-58
2021/06/18 01:38:02;;;;;;;7.05;6.45;;;25.00;62.30;;;;;;10434543;28;20025;-58
2021/06/18 01:43:06;;;;;;;7.10;6.40;;;25.00;62.40;;;;;;10426703;28;20137;-58
2021/06/18 01:48:08;;;;;;;7.07;6.47;;;25.00;62.30;;;;;;10418756;28;20796;-59
2021/06/18 01:53:15;;;;;;;7.38;6.72;;;25.00;62.40;;;;;;10418310;28;20545;-58
2021/06/18 01:58:18;;;;;;;6.78;6.18;;;25.00;62.30;;;;;;10418574;28;20041;-58
2021/06/18 02:03:26;;;;;;;7.40;6.65;;;25.00;62.40;;;;;;10419540;28;20390;-58
2021/06/18 02:08:28;;;;;;;7.40;6.73;;;25.00;62.30;;;;;;10419083;28;20050;-58
2021/06/18 02:13:30;;;;;;;8.38;7.60;;;25.00;62.30;;;;;;10417706;28;20045;-58
2021/06/18 02:18:33;;;;;;;7.13;6.53;;;25.00;62.40;;;;;;10416927;28;20087;-58
2021/06/18 02:23:35;;;;;;;7.68;7.05;;;25.00;62.40;;;;;;10417231;28;20038;-58
2021/06/18 02:28:36;;;;;;;7.40;6.75;;;25.00;62.40;;;;;;10417614;28;20029;-58
2021/06/18 02:33:37;;;;;;;7.00;6.40;;;25.00;62.40;;;;;;10416509;28;20391;-57
2021/06/18 02:38:38;;;;;;;8.07;7.28;;;24.90;62.30;;;;;;10418690;28;20034;-58
2021/06/18 02:43:38;;;;;;;7.22;6.63;;;25.00;62.40;;;;;;10424610;28;20029;-58
2021/06/18 02:48:48;;;;;;;7.70;7.00;;;25.00;62.50;;;;;;10417453;28;20057;-58
2021/06/18 02:54:16;;;;;;;7.50;6.80;;;25.00;62.40;;;;;;10416127;28;20050;-58
2021/06/18 02:59:36;;;;;;;8.40;7.60;;;24.90;62.30;;;;;;10412276;28;20098;-56
2021/06/18 03:04:39;;;;;;;7.90;7.10;;;24.90;62.40;;;;;;10404127;28;20478;-57
2021/06/18 03:09:51;;;;;;;7.63;7.03;;;24.90;62.40;;;;;;10412315;28;20018;-58
2021/06/18 03:14:56;;;;;;;8.50;7.70;;;24.90;62.40;;;;;;10417067;28;20029;-58
2021/06/18 03:20:07;;;;;;;8.18;7.47;;;24.90;62.40;;;;;;10416792;28;20026;-58
2021/06/18 03:25:08;;;;;;;8.20;7.50;;;24.90;62.40;;;;;;10416598;28;20080;-59
2021/06/18 03:30:10;;;;;;;7.70;7.10;;;24.90;62.40;;;;;;10415514;28;20489;-58
2021/06/18 03:35:11;;;;;;;7.20;6.60;;;24.90;62.50;;;;;;10416252;28;20116;-58
2021/06/18 03:40:13;;;;;;;9.35;8.55;;;24.90;62.40;;;;;;10414637;28;20072;-58
2021/06/18 03:45:17;;;;;;;8.52;7.80;;;24.90;62.40;;;;;;10421997;28;20032;-58
2021/06/18 03:50:23;;;;;;;8.82;7.93;;;24.90;62.30;;;;;;10415551;28;20402;-58
2021/06/18 03:55:23;;;;;;;7.85;7.22;;;24.90;62.40;;;;;;10415660;28;20505;-58
2021/06/18 04:00:25;;;;;;;8.52;7.60;;;24.90;62.30;;;;;;10414136;28;20021;-57
2021/06/18 04:05:27;;;;;;;8.98;8.07;;;24.90;62.40;;;;;;10414125;28;20033;-58
2021/06/18 04:10:28;;;;;;;8.32;7.63;;;24.90;62.50;;;;;;10414075;28;20517;-59
2021/06/18 04:15:29;;;;;;;8.80;7.90;;;24.90;62.40;;;;;;10415141;28;20037;-58
2021/06/18 04:20:31;;;;;;;9.60;8.73;;;24.90;62.60;;;;;;10413494;28;20026;-57
2021/06/18 04:25:32;;;;;;;8.80;7.90;;;24.90;62.80;;;;;;10413594;28;20041;-59
2021/06/18 04:30:32;;;;;;;9.68;8.73;;;24.90;62.60;;;;;;10414400;28;20026;-58
2021/06/18 04:35:33;;;;;;;9.85;8.95;;;24.80;62.80;;;;;;10401090;28;20037;-57
2021/06/18 04:40:34;;;;;;;9.55;8.65;;;24.80;62.80;;;;;;10414212;28;20420;-57
2021/06/18 04:45:35;;;;;;;10.20;9.30;;;24.80;62.80;;;;;;10421017;28;20455;-58
2021/06/18 04:50:36;;;;;;;10.00;9.10;;;24.80;63.00;;;;;;10413945;28;20048;-58
2021/06/18 04:55:40;;;;;;;9.02;8.32;;;24.80;63.20;;;;;;10413993;28;20474;-59
2021/06/18 05:00:41;;;;;;;10.82;9.52;;;24.80;63.20;;;;;;10413366;28;20025;-59
2021/06/18 05:05:42;;;;;;;10.05;9.13;;;24.80;63.10;;;;;;10413957;28;20104;-58
2021/06/18 05:10:42;;;;;;;9.30;8.50;;;24.80;63.30;;;;;;10413171;28;20075;-58
2021/06/18 05:15:43;;;;;;;9.98;9.07;;;24.80;63.30;;;;;;10413892;28;20057;-58
2021/06/18 05:20:44;;;;;;;7.78;7.05;;;24.80;63.20;;;;;;10413051;28;20053;-58
2021/06/18 05:25:44;;;;;;;8.95;8.23;;;24.80;63.20;;;;;;10413221;28;20100;-58
2021/06/18 05:30:45;;;;;;;8.85;7.72;;;24.80;63.30;;;;;;10412755;28;20049;-58
2021/06/18 05:35:46;;;;;;;8.85;8.05;;;24.80;63.30;;;;;;10412767;28;20058;-58
2021/06/18 05:40:47;;;;;;;8.98;8.18;;;24.80;63.30;;;;;;10413284;28;20476;-59
2021/06/18 05:45:47;;;;;;;8.98;8.27;;;24.80;63.30;;;;;;10420046;28;20117;-58
2021/06/18 05:50:51;;;;;;;8.65;7.85;;;24.80;63.40;;;;;;10412299;28;20556;-58
2021/06/18 05:55:52;;;;;;;9.30;8.50;;;24.80;63.30;;;;;;10416973;28;20112;-58
2021/06/18 06:00:52;;;;;;;8.65;7.95;;;24.80;63.50;;;;;;10419728;28;20500;-58
2021/06/18 06:05:53;;;;;;;8.20;7.50;;;24.80;63.60;;;;;;10419762;28;20107;-58
2021/06/18 06:10:54;;;;;;;7.65;6.95;;;24.80;63.60;;;;;;10418226;28;20064;-58
2021/06/18 06:15:54;;;;;;;9.07;8.20;;;24.80;63.40;;;;;;10418065;28;20044;-59
2021/06/18 06:20:55;;;;;;;8.82;8.02;;;24.80;63.50;;;;;;10419093;28;20553;-58
2021/06/18 06:25:56;;;;;;;9.35;8.52;;;24.80;63.60;;;;;;10419121;28;20123;-59
2021/06/18 06:30:57;;;;;;;10.05;9.18;;;24.80;63.50;;;;;;10418550;28;20033;-59
2021/06/18 06:35:57;;;;;;;10.15;9.27;;;24.80;63.70;;;;;;10404964;28;20099;-58
2021/06/18 06:40:58;;;;;;;9.25;8.35;;;24.80;63.80;;;;;;10419666;28;20056;-58
2021/06/18 06:45:59;;;;;;;9.73;8.93;;;24.90;63.80;;;;;;10423992;28;20446;-58
2021/06/18 06:51:00;;;;;;;8.63;7.93;;;24.90;63.80;;;;;;10417817;28;20041;-59
2021/06/18 06:56:01;;;;;;;8.63;7.93;;;24.80;63.80;;;;;;10416498;28;20449;-58
2021/06/18 07:01:01;;;;;;;8.68;7.97;;;24.80;63.70;;;;;;10417954;28;20036;-57
2021/06/18 07:06:02;;;;;;;9.40;8.60;;;24.80;63.60;;;;;;10417349;28;20354;-58
2021/06/18 07:11:04;;;;;;;8.52;7.82;;;24.90;64.40;;;;;;10430773;28;20049;-58
2021/06/18 07:16:05;;;;;;;8.98;8.27;;;24.90;63.80;;;;;;10416923;28;20026;-58
2021/06/18 07:21:06;;;;;;;9.77;8.88;;;24.90;63.80;;;;;;10416527;28;20025;-59
2021/06/18 07:26:06;;;;;;;8.57;7.85;;;24.90;63.90;;;;;;10416645;28;20038;-57
2021/06/18 07:31:07;;;;;;;8.52;7.80;;;24.90;64.00;;;;;;10416444;28;20136;-58
2021/06/18 07:36:08;;;;;;;9.27;8.55;;;24.80;64.00;;;;;;10406430;28;20044;-58
2021/06/18 07:41:09;;;;;;;8.50;7.75;;;24.90;64.10;;;;;;10418747;28;20505;-58
2021/06/18 07:46:09;;;;;;;9.13;8.23;;;24.80;64.10;;;;;;10420268;28;20025;-58
2021/06/18 07:51:10;;;;;;;8.48;7.68;;;24.80;64.20;;;;;;10414576;28;20048;-57
2021/06/18 07:56:11;;;;;;;8.80;8.10;;;24.80;64.20;;;;;;10414317;28;20068;-58
2021/06/18 08:01:12;;;;;;;8.82;7.95;;;24.80;64.20;;;;;;10414973;28;20048;-58
2021/06/18 08:06:13;;;;;;;8.82;8.13;;;24.80;64.00;;;;;;10415365;28;20064;-59
2021/06/18 08:11:13;;;;;;;8.82;8.07;;;24.80;64.10;;;;;;10415048;28;20041;-58
2021/06/18 08:16:14;;;;;;;8.93;8.20;;;24.80;64.20;;;;;;10414947;28;20033;-58
2021/06/18 08:21:15;;;;;;;9.40;8.50;;;24.80;64.30;;;;;;10414843;28;20030;-58
2021/06/18 08:26:15;;;;;;;9.32;8.52;;;24.80;64.30;;;;;;10414661;28;20039;-58
2021/06/18 08:31:16;;;;;;;7.10;6.50;;;24.80;64.30;;;;;;10429692;28;20037;-58
2021/06/18 08:36:17;;;;;;;9.38;8.57;;;24.80;64.40;;;;;;10414226;28;20112;-58
2021/06/18 08:41:17;;;;;;;9.18;7.28;;;24.80;64.40;;;;;;10417954;28;20035;-58
2021/06/18 08:46:18;;;;;;;9.13;8.40;;;24.80;64.40;;;;;;10417841;28;20126;-58
2021/06/18 08:51:20;;;;;;;7.85;7.15;;;24.80;64.30;;;;;;10413898;28;20045;-58
2021/06/18 08:56:21;;;;;;;8.77;7.88;;;24.80;64.20;;;;;;10413574;28;20104;-58
2021/06/18 09:01:21;;;;;;;8.13;7.43;;;24.80;64.20;;;;;;10413853;28;20608;-59
2021/06/18 09:06:31;;;;;;;8.65;7.90;;;24.80;64.10;;;;;;10414009;28;20123;-58
2021/06/18 09:11:37;;;;;;;8.38;7.32;;;24.80;64.80;;;;;;10413933;28;20037;-59
2021/06/18 09:16:38;;;;;;;9.73;8.82;;;24.80;64.40;;;;;;10414496;28;20116;-58
2021/06/18 09:21:38;;;;;;;8.30;7.50;;;24.90;64.40;;;;;;10413274;28;20167;-58
2021/06/18 09:26:39;;;;;;;8.75;8.05;;;24.90;64.30;;;;;;10413397;28;20100;-59
2021/06/18 09:32:04;;;;;;;8.43;7.72;;;24.90;64.40;;;;;;10420569;28;20482;-59
2021/06/18 09:37:22;;;;;;;9.32;8.43;;;24.90;64.40;;;;;;10409029;28;20040;-58
2021/06/18 09:42:25;;;;;;;8.77;7.97;;;24.90;64.40;;;;;;10428292;28;20068;-58
2021/06/18 09:47:26;;;;;;;9.50;8.70;;;25.00;64.50;;;;;;10420612;28;20052;-58
2021/06/18 09:52:27;;;;;;;8.70;7.95;;;25.00;64.50;;;;;;10420426;28;20678;-58
2021/06/18 09:57:40;;;;;;;9.48;8.68;;;25.00;64.50;;;;;;10419251;28;20057;-58
2021/06/18 10:02:43;;;;;;;9.40;8.60;;;25.00;64.50;;;;;;10419900;28;20037;-59
2021/06/18 10:07:47;;;;;;;9.75;8.95;;;25.00;64.50;;;;;;10419858;28;20034;-58
2021/06/18 10:12:49;;;;;;;10.32;9.32;;;25.00;64.50;;;;;;10418500;28;20044;-58
2021/06/18 10:17:53;;;;;;;9.65;8.85;;;25.10;65.30;;;;;;10420061;28;20028;-58
2021/06/18 10:22:58;;;;;;;9.82;8.93;;;25.00;64.50;;;;;;10419162;28;20095;-57
2021/06/18 10:28:06;;;;;;;9.70;8.90;;;25.10;64.60;;;;;;10418009;28;20034;-56
2021/06/18 10:33:25;;;;;;;9.60;8.70;;;25.10;64.70;;;;;;10415032;28;20037;-58
2021/06/18 10:38:27;;;;;;;9.13;8.32;;;25.10;64.60;;;;;;10418584;28;20025;-57
2021/06/18 10:43:46;;;;;;;12.10;9.82;;;25.10;64.60;;;;;;10424926;28;20068;-58
2021/06/18 10:48:47;;;;;;;;;;;25.10;64.60;;;;;;10417731;28;20049;-58
2021/06/18 10:54:01;;;;;;;9.73;8.82;;;25.10;64.60;;;;;;10417911;28;19917;-59
2021/06/18 10:59:06;;;;;;;8.82;8.00;;;25.20;64.70;;;;;;10416701;28;20029;-58
2021/06/18 11:04:07;;;;;;;11.02;9.98;;;25.20;64.60;;;;;;10417279;28;20056;-58
2021/06/18 11:09:09;;;;;;;9.43;8.57;;;25.20;64.60;;;;;;10417682;28;20037;-59
2021/06/18 11:14:10;;;;;;;9.52;8.73;;;25.20;64.50;;;;;;10415664;28;20037;-58
2021/06/18 11:19:26;;;;;;;8.27;7.40;;;25.20;64.50;;;;;;10417194;28;20029;-58
2021/06/18 11:24:40;;;;;;;8.57;7.88;;;25.20;64.40;;;;;;10416869;28;20481;-58
2021/06/18 11:29:41;;;;;;;8.35;7.65;;;25.30;64.50;;;;;;10417010;28;20343;-58
2021/06/18 11:34:41;;;;;;;8.20;7.50;;;25.30;64.50;;;;;;10415853;28;20120;-58
2021/06/18 11:39:42;;;;;;;8.75;8.00;;;25.30;64.40;;;;;;10415731;28;20080;-58
2021/06/18 11:44:43;;;;;;;9.25;8.52;;;25.40;64.50;;;;;;10418998;28;20067;-58
2021/06/18 11:49:44;;;;;;;8.48;7.68;;;25.30;64.40;;;;;;10415353;28;20112;-58
2021/06/18 11:54:45;;;;;;;8.90;8.10;;;25.40;64.50;;;;;;10414361;28;20049;-58
2021/06/18 11:59:59;;;;;;;8.80;8.00;;;25.40;64.50;;;;;;10415988;28;20053;-58
2021/06/18 12:05:09;;;;;;;8.25;7.55;;;25.40;64.40;;;;;;10415011;28;20037;-58
2021/06/18 12:10:24;;;;;;;9.30;8.48;;;25.40;64.40;;;;;;10415102;28;20045;-59
2021/06/18 12:15:32;;;;;;;9.10;8.30;;;25.40;64.40;;;;;;10414753;28;20042;-58
2021/06/18 12:20:42;;;;;;;9.10;8.20;;;25.40;64.40;;;;;;10415148;28;20032;-57
2021/06/18 12:25:43;;;;;;;8.70;7.88;;;25.40;64.40;;;;;;10414405;28;20056;-58
2021/06/18 12:30:45;;;;;;;10.38;8.27;;;25.40;64.30;;;;;;10414587;28;20377;-58
2021/06/18 12:35:45;;;;;;;9.75;8.90;;;25.50;64.40;;;;;;10414125;28;20029;-58
2021/06/18 12:40:48;;;;;;;8.75;7.97;;;25.50;64.40;;;;;;10413876;28;20121;-59
2021/06/18 12:45:53;;;;;;;9.27;8.50;;;25.50;64.40;;;;;;10421648;28;20034;-59
2021/06/18 12:51:03;;;;;;;8.88;8.05;;;25.50;64.30;;;;;;10413802;28;20046;-59
2021/06/18 12:56:19;;;;;;;9.48;8.68;;;25.60;64.40;;;;;;10412648;28;20919;-58
2021/06/18 13:06:25;;;;;;;9.45;8.63;;;25.60;64.30;;;;;;10421095;28;20080;-58
2021/06/18 13:11:34;;;;;;;8.45;7.75;;;25.60;64.30;;;;;;10421891;28;20037;-58
2021/06/18 13:16:35;;;;;;;9.07;8.23;;;25.60;64.30;;;;;;10422255;28;20466;-58
2021/06/18 13:21:46;;;;;;;9.23;8.45;;;25.60;64.20;;;;;;10421510;28;20029;-58
2021/06/18 13:26:47;;;;;;;9.38;8.57;;;25.60;64.20;;;;;;10421062;28;20748;-58
2021/06/18 13:31:54;;;;;;;8.32;7.60;;;25.60;64.10;;;;;;10420272;28;20033;-58
2021/06/18 13:37:05;;;;;;;8.60;7.80;;;25.60;64.10;;;;;;10407143;28;20033;-59
2021/06/18 13:42:08;;;;;;;9.18;8.27;;;25.70;64.20;;;;;;10428085;28;20113;-58
2021/06/18 13:47:09;;;;;;;9.30;8.45;;;25.60;64.10;;;;;;10420212;28;20057;-57
2021/06/18 13:52:10;;;;;;;8.75;8.05;;;25.70;64.80;;;;;;10420518;28;20648;-58
2021/06/18 13:57:10;;;;;;;8.77;7.85;;;25.60;64.10;;;;;;10420052;28;20051;-58
2021/06/18 14:02:11;;;;;;;9.10;8.40;;;25.60;64.10;;;;;;10420025;28;20382;-58
2021/06/18 14:07:17;;;;;;;9.38;8.55;;;25.60;64.00;;;;;;10435205;28;20026;-58
2021/06/18 14:12:18;;;;;;;8.77;8.02;;;25.60;64.00;;;;;;10419653;28;20025;-59
2021/06/18 14:17:18;;;;;;;9.32;8.55;;;25.60;64.10;;;;;;10418790;28;20432;-58
2021/06/18 14:22:19;;;;;;;9.38;8.52;;;25.60;64.10;;;;;;10418654;28;20056;-58
2021/06/18 14:27:20;;;;;;;8.80;8.00;;;25.60;64.10;;;;;;10418686;28;21311;-58
2021/06/18 14:32:21;;;;;;;9.43;8.63;;;25.60;64.10;;;;;;10415450;28;20022;-58
2021/06/18 14:37:22;;;;;;;9.38;8.57;;;25.60;64.00;;;;;;10408486;28;20032;-58
2021/06/18 14:42:23;;;;;;;8.65;7.82;;;25.60;64.00;;;;;;10425600;28;20022;-58
2021/06/18 14:47:23;;;;;;;8.93;8.15;;;25.50;64.00;;;;;;10418069;28;20136;-57
2021/06/18 14:52:24;;;;;;;8.02;7.32;;;25.50;64.00;;;;;;10418335;28;20034;-58
2021/06/18 14:57:25;;;;;;;8.88;8.07;;;25.50;64.00;;;;;;10417643;28;20485;-58
2021/06/18 15:02:25;;;;;;;8.27;7.57;;;25.50;64.00;;;;;;10417846;28;20112;-59
2021/06/18 15:07:26;;;;;;;8.50;7.75;;;25.50;64.00;;;;;;10417737;28;20033;-58
2021/06/18 15:12:27;;;;;;;8.80;8.10;;;25.50;64.00;;;;;;10415840;28;20036;-58
2021/06/18 15:17:29;;;;;;;8.27;7.57;;;25.50;64.00;;;;;;10417208;28;20053;-56
2021/06/18 15:22:30;;;;;;;8.90;8.10;;;25.50;64.10;;;;;;10416874;28;20454;-58
2021/06/18 15:27:33;;;;;;;8.88;8.07;;;25.50;64.00;;;;;;10416725;28;20055;-59
2021/06/18 15:32:34;;;;;;;9.40;8.60;;;25.50;64.00;;;;;;10411265;28;20117;-58
2021/06/18 15:37:34;;;;;;;8.68;7.90;;;25.50;64.00;;;;;;10408309;28;20033;-58
2021/06/18 15:42:38;;;;;;;9.77;8.98;;;25.50;64.10;;;;;;10423225;28;20040;-58
2021/06/18 15:47:39;;;;;;;8.93;8.23;;;25.50;64.30;;;;;;10415680;28;20418;-59
2021/06/18 15:52:39;;;;;;;10.18;9.25;;;25.50;64.30;;;;;;10415695;28;20090;-58
2021/06/18 15:57:40;;;;;;;8.38;7.60;;;25.50;64.30;;;;;;10415542;28;20505;-57
2021/06/18 16:02:41;;;;;;;8.63;7.93;;;25.50;64.30;;;;;;10415424;28;20025;-58
2021/06/18 16:07:42;;;;;;;9.32;8.52;;;25.50;64.50;;;;;;10415352;28;20033;-58
2021/06/18 16:12:43;;;;;;;9.35;8.55;;;25.50;64.90;;;;;;10414712;28;20037;-58
2021/06/18 16:17:43;;;;;;;8.68;7.72;;;25.50;65.00;;;;;;10414805;28;20355;-58
2021/06/18 16:22:45;;;;;;;9.30;8.27;;;25.50;64.90;;;;;;10414589;28;20040;-58
2021/06/18 16:27:46;;;;;;;9.02;8.13;;;25.50;64.80;;;;;;10415148;28;20458;-58
2021/06/18 16:32:48;;;;;;;9.00;8.15;;;25.50;64.80;;;;;;10407520;28;20125;-58
2021/06/18 16:37:49;;;;;;;9.13;8.20;;;25.50;64.70;;;;;;10406132;28;20021;-58
2021/06/18 16:42:50;;;;;;;8.88;8.07;;;25.50;64.90;;;;;;10420560;28;20051;-58
2021/06/18 16:47:50;;;;;;;8.30;7.60;;;25.60;65.00;;;;;;10413791;28;20045;-58
2021/06/18 16:52:51;;;;;;;8.95;8.15;;;25.50;64.80;;;;;;10414091;28;20041;-58
2021/06/18 16:57:52;;;;;;;8.57;7.78;;;25.60;64.80;;;;;;10413809;28;20029;-58
2021/06/18 17:02:53;;;;;;;9.00;8.10;;;25.50;64.80;;;;;;10413897;28;20064;-59
2021/06/18 17:07:56;;;;;;;8.13;7.43;;;25.50;64.80;;;;;;10413710;28;20026;-58
2021/06/18 17:13:18;;;;;;;8.90;8.07;;;25.60;65.00;;;;;;10413858;28;20037;-59
2021/06/18 17:18:19;;;;;;;10.48;8.00;;;25.50;64.80;;;;;;10412268;28;20036;-58
2021/06/18 17:23:20;;;;;;;9.02;8.13;;;25.50;64.80;;;;;;10413630;28;20094;-58
2021/06/18 17:28:21;;;;;;;9.48;8.15;;;25.50;64.80;;;;;;10412089;28;20537;-57
2021/06/18 17:33:22;;;;;;;9.15;8.25;;;25.60;65.10;;;;;;10400329;28;20438;-58
2021/06/18 17:38:25;;;;;;;8.85;7.57;;;25.60;65.10;;;;;;10411491;28;20033;-58
2021/06/18 17:43:27;;;;;;;9.23;8.32;;;25.60;65.20;;;;;;10419675;28;20112;-58
2021/06/18 17:48:28;;;;;;;8.02;7.22;;;25.50;65.00;;;;;;10412742;28;20046;-58
2021/06/18 17:53:29;;;;;;;8.50;7.70;;;25.50;64.80;;;;;;10419635;28;20037;-58
2021/06/18 17:58:29;;;;;;;8.00;7.32;;;25.60;64.90;;;;;;10420039;28;20033;-59
2021/06/18 18:03:30;;;;;;;9.43;8.57;;;25.50;64.80;;;;;;10420321;28;20091;-59
2021/06/18 18:08:31;;;;;;;8.75;7.95;;;25.50;64.80;;;;;;10419879;28;20055;-58
2021/06/18 18:13:32;;;;;;;8.63;7.78;;;25.50;64.90;;;;;;10419650;28;20120;-57
2021/06/18 18:18:34;;;;;;;9.40;8.55;;;25.50;65.00;;;;;;10418123;28;20038;-59
2021/06/18 18:23:36;;;;;;;8.13;7.43;;;25.50;65.00;;;;;;10419707;28;20025;-59
2021/06/18 18:28:37;;;;;;;7.85;7.15;;;25.50;64.90;;;;;;10417716;28;20033;-57
2021/06/18 18:33:37;;;;;;;8.13;7.43;;;25.50;64.90;;;;;;10404111;28;20125;-58
2021/06/18 18:38:38;;;;;;;8.43;7.63;;;25.50;65.00;;;;;;10418543;28;20340;-58
2021/06/18 18:43:39;;;;;;;8.07;7.38;;;25.50;65.00;;;;;;10425802;28;20597;-59
2021/06/18 18:48:39;;;;;;;8.30;7.50;;;25.50;65.10;;;;;;10417929;28;20054;-58
2021/06/18 18:53:40;;;;;;;7.88;7.10;;;25.50;65.10;;;;;;10418191;28;20556;-58
2021/06/18 18:59:23;;;;;;;7.95;7.25;;;25.50;65.00;;;;;;10417719;28;20500;-58
2021/06/18 19:04:06;;;;;;;9.25;8.15;;;25.50;65.60;;;;;;10411857;28;20120;-58
2021/06/18 19:09:07;;;;;;;9.23;8.05;;;25.50;66.10;;;;;;10416490;28;20031;-58
2021/06/18 19:14:08;;;;;;;8.93;8.02;;;25.50;66.10;;;;;;10417513;28;20034;-57
2021/06/18 19:19:08;;;;;;;9.55;8.60;;;25.40;66.40;;;;;;10417043;28;20148;-57
2021/06/18 19:24:10;;;;;;;8.88;8.07;;;25.40;66.60;;;;;;10416921;28;20080;-57
2021/06/18 19:29:13;;;;;;;9.65;8.68;;;25.50;66.70;;;;;;10416978;28;20351;-57
2021/06/18 19:34:15;;;;;;;8.40;7.70;;;25.40;66.00;;;;;;10416707;28;20121;-57
2021/06/18 19:39:21;;;;;;;8.68;7.95;;;25.40;66.00;;;;;;10416677;28;20477;-57
2021/06/18 19:44:29;;;;;;;8.52;7.53;;;25.40;66.10;;;;;;10423955;28;20383;-57
2021/06/18 19:49:30;;;;;;;8.43;7.63;;;25.40;66.10;;;;;;10415523;28;20061;-58
2021/06/18 19:54:32;;;;;;;8.57;7.60;;;25.40;66.00;;;;;;10415678;28;20083;-57
2021/06/18 19:59:33;;;;;;;8.85;8.05;;;25.40;65.80;;;;;;10415824;28;20047;-58
2021/06/18 20:04:33;;;;;;;8.02;7.32;;;25.40;65.70;;;;;;10414051;28;20078;-57
2021/06/18 20:09:34;;;;;;;7.97;7.28;;;25.40;65.70;;;;;;10415155;28;20075;-57
2021/06/18 20:14:36;;;;;;;7.57;6.88;;;25.40;65.70;;;;;;10414466;28;20025;-57
2021/06/18 20:19:36;;;;;;;7.50;6.80;;;25.40;65.70;;;;;;10415037;28;20033;-57
2021/06/18 20:24:37;;;;;;;7.97;7.18;;;25.40;65.70;;;;;;10413624;28;20042;-57
2021/06/18 20:29:38;;;;;;;8.57;7.88;;;25.40;65.70;;;;;;10415043;28;20028;-57
2021/06/18 20:34:41;;;;;;;7.80;7.07;;;25.40;66.30;;;;;;10414320;28;20563;-57
2021/06/18 20:39:42;;;;;;;8.05;6.47;;;25.40;65.70;;;;;;10414875;28;20025;-58
2021/06/18 20:44:43;;;;;;;7.00;6.30;;;25.40;65.70;;;;;;10424463;28;20116;-57
2021/06/18 20:49:43;;;;;;;7.63;6.93;;;25.40;65.70;;;;;;10414467;28;20099;-57
2021/06/18 20:54:47;;;;;;;7.18;6.50;;;25.40;65.70;;;;;;10414118;28;20116;-58
2021/06/18 20:59:49;;;;;;;7.65;6.95;;;25.40;65.60;;;;;;10413597;28;20022;-57
2021/06/18 21:04:50;;;;;;;7.35;6.65;;;25.40;65.60;;;;;;10413758;28;20037;-58
2021/06/18 21:09:51;;;;;;;7.57;6.88;;;25.40;65.60;;;;;;10414303;28;20490;-58
2021/06/18 21:14:52;;;;;;;7.57;6.88;;;25.40;65.60;;;;;;10413813;28;20121;-58
2021/06/18 21:19:54;;;;;;;7.30;6.60;;;25.40;65.60;;;;;;10414143;28;20048;-58
2021/06/18 21:24:55;;;;;;;7.40;6.70;;;25.40;65.60;;;;;;10417147;28;20033;-58
2021/06/18 21:29:56;;;;;;;7.22;6.60;;;25.40;65.50;;;;;;10421839;28;20034;-56
2021/06/18 21:34:56;;;;;;;6.38;5.80;;;25.40;65.50;;;;;;10408342;28;20040;-58
2021/06/18 21:39:57;;;;;;;6.75;6.03;;;25.40;65.50;;;;;;10421444;28;20029;-57
2021/06/18 21:44:58;;;;;;;8.13;7.43;;;25.40;65.50;;;;;;10428254;28;20025;-58
2021/06/18 21:49:59;;;;;;;7.40;6.78;;;25.30;65.40;;;;;;10421152;28;20489;-58
2021/06/18 21:55:00;;;;;;;6.60;6.05;;;25.30;65.40;;;;;;10420645;28;20037;-58
2021/06/18 22:00:09;;;;;;;6.60;6.00;;;25.30;65.40;;;;;;10420262;28;20025;-58
2021/06/18 22:05:11;;;;;;;7.50;6.55;;;25.30;65.40;;;;;;10419493;28;20072;-58
2021/06/18 22:10:16;;;;;;;7.78;6.97;;;25.30;65.40;;;;;;10420291;28;20086;-57
2021/06/18 22:15:20;;;;;;;7.45;6.80;;;25.30;65.30;;;;;;10418495;28;20040;-58
2021/06/18 22:20:22;;;;;;;6.72;6.13;;;25.30;65.40;;;;;;10419915;28;20579;-57
2021/06/18 22:25:23;;;;;;;7.82;7.10;;;25.30;65.40;;;;;;10419682;28;20082;-58
2021/06/18 22:30:32;;;;;;;6.88;6.30;;;25.30;65.40;;;;;;10419374;28;20021;-57
2021/06/18 22:35:33;;;;;;;7.13;6.43;;;25.30;65.40;;;;;;10405276;28;20109;-57
2021/06/18 22:40:33;;;;;;;7.68;6.43;;;25.30;65.40;;;;;;10418812;28;20470;-58
2021/06/18 22:45:35;;;;;;;6.55;5.95;;;25.30;65.40;;;;;;10426144;28;20037;-57
2021/06/18 22:50:37;;;;;;;6.53;5.82;;;25.30;65.40;;;;;;10418243;28;20045;-58
2021/06/18 22:55:38;;;;;;;7.25;6.55;;;25.30;65.40;;;;;;10418612;28;20036;-58
2021/06/18 23:01:08;;;;;;;7.32;6.60;;;25.30;65.40;;;;;;10418377;28;20117;-57
2021/06/18 23:06:09;;;;;;;7.15;6.40;;;25.30;65.40;;;;;;10405375;28;20025;-58
2021/06/18 23:11:10;;;;;;;6.22;5.70;;;25.30;65.30;;;;;;10417767;28;20037;-58
2021/06/18 23:16:11;;;;;;;6.68;6.07;;;25.30;65.40;;;;;;10417745;28;20052;-57
2021/06/18 23:21:11;;;;;;;6.40;5.80;;;25.30;65.40;;;;;;10417738;28;20030;-58
2021/06/18 23:26:12;;;;;;;6.80;6.15;;;25.30;65.40;;;;;;10417563;28;20137;-58
2021/06/18 23:31:13;;;;;;;7.38;6.65;;;25.30;65.40;;;;;;10416997;28;20462;-58
2021/06/18 23:36:13;;;;;;;6.50;5.90;;;25.20;65.20;;;;;;10416751;28;20533;-58
2021/06/18 23:41:14;;;;;;;6.25;5.72;;;25.30;65.40;;;;;;10420260;28;20049;-58
2021/06/18 23:46:15;;;;;;;6.70;6.03;;;25.20;65.30;;;;;;10420421;28;20037;-58
2021/06/18 23:51:17;;;;;;;8.23;6.03;;;25.20;65.30;;;;;;10416375;28;20099;-57
2021/06/18 23:56:18;;;;;;;6.90;5.53;;;25.20;65.30;;;;;;10416033;28;20029;-58
